Terminal Aerodrome Forecast
Issued by NWS Hastings, NE

Home | Current Version | Previous Version | Text Only | Print | Product List | Glossary On
Versions: 1 2 3 4 5 6 7 8 9 10 11 12 13 14 15 16 17 18 19 20 21 22 23 24 25 26 27 28 29 30 31 32 33 34 35 36
000
FTUS43 KGID 240530
TAFGRI
TAF
KGRI 240530Z 2406/2506 17005KT P6SM SKC
     FM241700 12008KT P6SM VCTS BKN090CB
     FM242200 14012G20KT P6SM VCTS BKN060CB
     FM250200 12011KT P6SM BKN050
     FM250500 14011KT P6SM VCTS OVC050CB=

USA.gov is the U.S. government's official web portal to all federal, state and local government web resources and services.